Time;durP1;ratioP1;P1;durP2;ratioP2;P2;SDS_P1;SDS_P2;PMS_P1;PMS_P2;Temp;Humidity;BMP_temperature;BMP_pressure;BME280_temperature;BME280_humidity;BME280_pressure;Samples;Min_cycle;Max_cycle;Signal;HPM_P1;HPM_P2
2024/03/29 00:02:00;;;;;;;;;;;;;;;10.10;59.11;99765.19;5024271;28;20011;-89
2024/03/29 00:04:25;;;;;;;;;;;;;;;10.08;58.99;99773.50;5024128;28;19966;-90
2024/03/29 00:06:50;;;;;;;;;;;;;;;10.09;58.96;99779.66;5026325;28;19921;-93
2024/03/29 00:09:15;;;;;;;;;;;;;;;10.09;58.94;99785.81;5041691;28;19922;-89
2024/03/29 00:11:40;;;;;;;;;;;;;;;10.10;58.79;99792.75;5028027;28;20007;-89
2024/03/29 00:14:06;;;;;;;;;;;;;;;10.10;58.82;99798.09;5024804;28;19961;-90
2024/03/29 00:16:31;;;;;;;;;;;;;;;10.09;58.79;99801.84;5026050;28;20059;-90
2024/03/29 00:18:56;;;;;;;;;;;;;;;10.08;59.05;99797.56;5023527;28;19920;-90
2024/03/29 00:21:21;;;;;;;;;;;;;;;10.08;59.08;99799.44;5025441;28;19917;-89
2024/03/29 00:23:47;;;;;;;;;;;;;;;10.05;59.13;99802.63;5025231;28;20301;-89
2024/03/29 00:26:12;;;;;;;;;;;;;;;10.02;59.16;99809.34;5023627;28;19925;-89
2024/03/29 00:28:37;;;;;;;;;;;;;;;10.03;59.50;99807.47;5031327;28;20653;-89
2024/03/29 00:31:03;;;;;;;;;;;;;;;10.03;59.25;99818.16;5030872;28;20488;-89
2024/03/29 00:33:28;;;;;;;;;;;;;;;10.02;59.31;99820.03;5029261;28;19925;-89
2024/03/29 00:35:53;;;;;;;;;;;;;;;10.01;59.44;99821.09;5029216;28;20593;-89
2024/03/29 00:38:18;;;;;;;;;;;;;;;10.00;59.51;99830.22;5028233;28;19921;-90
2024/03/29 00:40:43;;;;;;;;;;;;;;;10.00;59.96;99825.66;5029993;28;19920;-89
2024/03/29 00:43:10;;;;;;;;;;;;;;;10.04;60.00;99830.47;5029605;28;21234;-90
2024/03/29 00:45:35;;;;;;;;;;;;;;;10.08;60.23;99834.25;5028527;28;19991;-89
2024/03/29 00:48:00;;;;;;;;;;;;;;;10.10;60.10;99830.22;5027362;28;20293;-90
2024/03/29 00:50:25;;;;;;;;;;;;;;;10.12;60.16;99833.44;5030364;28;21562;-89
2024/03/29 00:52:50;;;;;;;;;;;;;;;10.15;60.42;99840.94;5029907;28;19952;-89
2024/03/29 00:55:16;;;;;;;;;;;;;;;10.16;60.31;99839.84;5028852;28;19979;-89
2024/03/29 00:57:41;;;;;;;;;;;;;;;10.17;60.26;99837.97;5029374;28;19920;-89
2024/03/29 01:00:06;;;;;;;;;;;;;;;10.17;60.67;99846.00;5031019;28;19924;-90
2024/03/29 01:02:32;;;;;;;;;;;;;;;10.19;60.83;99844.66;5029338;28;19921;-89
2024/03/29 01:04:57;;;;;;;;;;;;;;;10.22;60.73;99846.03;5027784;28;20379;-90
2024/03/29 01:07:22;;;;;;;;;;;;;;;10.22;60.67;99846.84;5037831;28;20711;-89
2024/03/29 01:09:48;;;;;;;;;;;;;;;10.23;60.74;99851.16;5029584;28;19921;-89
2024/03/29 01:12:13;;;;;;;;;;;;;;;10.23;60.80;99847.63;5026976;28;20301;-89
2024/03/29 01:14:38;;;;;;;;;;;;;;;10.21;60.87;99853.25;5027611;28;19941;-90
2024/03/29 01:17:03;;;;;;;;;;;;;;;10.21;61.05;99853.25;5029724;28;20051;-89
2024/03/29 01:19:28;;;;;;;;;;;;;;;10.22;61.24;99849.50;5026837;28;20659;-90
2024/03/29 01:21:54;;;;;;;;;;;;;;;10.27;61.13;99862.13;5027581;28;19925;-90
2024/03/29 01:24:19;;;;;;;;;;;;;;;10.25;61.34;99865.06;5027189;28;19936;-89
2024/03/29 01:26:44;;;;;;;;;;;;;;;10.26;61.27;99872.03;5028052;28;20935;-88
2024/03/29 01:29:09;;;;;;;;;;;;;;;10.28;61.64;99877.13;5028695;28;19917;-89
2024/03/29 01:31:35;;;;;;;;;;;;;;;10.31;61.69;99879.25;5028974;28;20591;-89
2024/03/29 01:34:02;;;;;;;;;;;;;;;10.35;61.38;99861.56;5026446;28;19917;-90
2024/03/29 01:36:27;;;;;;;;;;;;;;;10.36;61.62;99875.75;5031473;28;19917;-89
2024/03/29 01:38:56;;;;;;;;;;;;;;;10.38;62.14;99869.06;5028785;28;19917;-89
2024/03/29 01:41:23;;;;;;;;;;;;;;;10.40;61.49;99874.97;5029692;28;19959;-89
2024/03/29 01:43:48;;;;;;;;;;;;;;;10.42;61.48;99880.88;5029602;28;19925;-90
2024/03/29 01:46:13;;;;;;;;;;;;;;;10.44;61.90;99886.75;5029675;28;19921;-89
2024/03/29 01:48:39;;;;;;;;;;;;;;;10.46;61.71;99876.59;5029784;28;20024;-89
2024/03/29 01:51:04;;;;;;;;;;;;;;;10.48;61.62;99890.50;5030124;28;19917;-89
2024/03/29 01:53:30;;;;;;;;;;;;;;;10.51;61.77;99895.31;5029516;28;20008;-89
2024/03/29 01:55:56;;;;;;;;;;;;;;;10.55;61.55;99890.22;5027521;28;19952;-89
2024/03/29 01:58:21;;;;;;;;;;;;;;;10.57;61.55;99893.44;5028733;28;19949;-90
2024/03/29 02:00:54;;;;;;;;;;;;;;;10.61;61.19;99891.03;5026656;28;19917;-89
2024/03/29 02:03:20;;;;;;;;;;;;;;;10.61;61.38;99886.50;5027420;28;20335;-89
2024/03/29 02:05:46;;;;;;;;;;;;;;;10.62;61.35;99881.94;5028395;28;19924;-89
2024/03/29 02:08:11;;;;;;;;;;;;;;;10.62;61.47;99885.41;5026250;28;19948;-90
2024/03/29 02:10:37;;;;;;;;;;;;;;;10.63;61.42;99895.06;5028901;28;20382;-89
2024/03/29 02:13:03;;;;;;;;;;;;;;;10.64;61.25;99895.84;5027172;28;19917;-90
2024/03/29 02:15:28;;;;;;;;;;;;;;;10.61;61.37;99893.72;5027821;28;20385;-89
2024/03/29 02:17:54;;;;;;;;;;;;;;;10.59;61.59;99896.66;5030735;28;19925;-89
2024/03/29 02:20:19;;;;;;;;;;;;;;;10.58;61.66;99901.19;5029046;28;19925;-90
2024/03/29 02:22:53;;;;;;;;;;;;;;;10.56;61.49;99894.50;5031174;28;19925;-90
2024/03/29 02:25:19;;;;;;;;;;;;;;;10.52;61.24;99909.50;5027674;28;19928;-89
2024/03/29 02:27:44;;;;;;;;;;;;;;;10.50;61.72;99904.44;5027984;28;19917;-89
2024/03/29 02:30:13;;;;;;;;;;;;;;;10.50;61.40;99908.97;5028926;28;19925;-90
2024/03/29 02:32:38;;;;;;;;;;;;;;;10.46;61.73;99903.38;5029178;28;19987;-90
2024/03/29 02:35:03;;;;;;;;;;;;;;;10.45;61.54;99907.13;5028222;28;20408;-89
2024/03/29 02:37:28;;;;;;;;;;;;;;;10.45;61.66;99901.75;5027788;28;19921;-90
2024/03/29 02:39:54;;;;;;;;;;;;;;;10.44;61.83;99910.06;5028873;28;20411;-90
2024/03/29 02:42:19;;;;;;;;;;;;;;;10.43;61.79;99895.88;5027897;28;20050;-89
2024/03/29 02:44:46;;;;;;;;;;;;;;;10.39;61.70;99897.44;5028811;28;19944;-89
2024/03/29 02:47:11;;;;;;;;;;;;;;;10.35;61.62;99907.09;5027580;28;20012;-91
2024/03/29 02:49:36;;;;;;;;;;;;;;;10.31;61.77;99911.38;5027584;28;20008;-90
2024/03/29 02:52:01;;;;;;;;;;;;;;;10.29;62.02;99902.81;5026725;28;19918;-90
2024/03/29 02:54:26;;;;;;;;;;;;;;;10.27;61.87;99911.13;5026139;28;19924;-90
2024/03/29 02:56:52;;;;;;;;;;;;;;;10.24;61.98;99906.28;5028516;28;20445;-89
2024/03/29 02:59:17;;;;;;;;;;;;;;;10.24;62.34;99908.16;5027629;28;19917;-89
2024/03/29 03:01:42;;;;;;;;;;;;;;;10.23;62.49;99907.38;5025397;28;19956;-90
2024/03/29 03:04:07;;;;;;;;;;;;;;;10.23;62.40;99914.56;5028631;28;19925;-90
2024/03/29 03:06:32;;;;;;;;;;;;;;;10.21;62.77;99901.44;5027859;28;19921;-90
2024/03/29 03:11:41;;;;;;;;;;;;;;;10.21;62.61;99904.13;5029704;28;19924;-89
2024/03/29 03:14:07;;;;;;;;;;;;;;;10.22;62.92;99918.31;5026052;28;19917;-89
2024/03/29 03:16:32;;;;;;;;;;;;;;;10.23;63.26;99917.25;5028515;28;19925;-89
2024/03/29 03:18:57;;;;;;;;;;;;;;;10.26;63.11;99919.41;5027722;28;20035;-90
2024/03/29 03:21:22;;;;;;;;;;;;;;;10.29;63.37;99929.59;5027023;28;19929;-89
2024/03/29 03:23:47;;;;;;;;;;;;;;;10.29;63.59;99933.06;5026660;28;19992;-89
2024/03/29 03:26:13;;;;;;;;;;;;;;;10.33;63.67;99925.31;5025163;28;19921;-90
2024/03/29 03:28:38;;;;;;;;;;;;;;;10.37;63.62;99937.09;5027361;28;20160;-89
2024/03/29 03:31:03;;;;;;;;;;;;;;;10.36;63.89;99929.31;5029826;28;20373;-89
2024/03/29 03:33:28;;;;;;;;;;;;;;;10.38;64.22;99933.34;5027914;28;19922;-89
2024/03/29 03:35:53;;;;;;;;;;;;;;;10.41;64.52;99937.34;5027864;28;19917;-89
2024/03/29 03:38:19;;;;;;;;;;;;;;;10.40;64.42;99928.50;5026056;28;19965;-89
2024/03/29 03:40:44;;;;;;;;;;;;;;;10.43;64.16;99930.69;5025906;28;19917;-88
2024/03/29 03:43:10;;;;;;;;;;;;;;;10.43;64.77;99932.56;5022591;28;19917;-89
2024/03/29 03:45:39;;;;;;;;;;;;;;;10.46;64.17;99946.22;5025430;28;19925;-89
2024/03/29 03:48:05;;;;;;;;;;;;;;;10.44;64.70;99948.34;5023575;28;19960;-88
2024/03/29 03:50:30;;;;;;;;;;;;;;;10.45;65.23;99954.50;5027858;28;19963;-89
2024/03/29 03:52:55;;;;;;;;;;;;;;;10.45;65.72;99960.69;5028998;28;19917;-89
2024/03/29 03:55:20;;;;;;;;;;;;;;;10.44;65.46;99953.72;5028089;28;19925;-88
2024/03/29 03:57:46;;;;;;;;;;;;;;;10.44;65.43;99960.94;5028013;28;19923;-89
2024/03/29 04:00:11;;;;;;;;;;;;;;;10.40;66.01;99957.97;5023469;28;20286;-89
2024/03/29 04:02:36;;;;;;;;;;;;;;;10.38;66.26;99952.06;5026779;28;20007;-89
2024/03/29 04:05:01;;;;;;;;;;;;;;;10.39;66.32;99951.00;5031553;28;19987;-90
2024/03/29 04:07:27;;;;;;;;;;;;;;;10.38;66.21;99951.28;5032840;28;19933;-88
2024/03/29 04:09:52;;;;;;;;;;;;;;;10.38;65.97;99965.47;5031649;28;19943;-90
2024/03/29 04:12:17;;;;;;;;;;;;;;;10.33;66.79;99961.97;5032555;28;19917;-90
2024/03/29 04:14:43;;;;;;;;;;;;;;;10.32;66.57;99955.03;5030994;28;20011;-90
2024/03/29 04:17:08;;;;;;;;;;;;;;;10.30;66.88;99957.97;5029037;28;20562;-89
2024/03/29 04:19:33;;;;;;;;;;;;;;;10.26;67.02;99951.53;5032102;28;19924;-90
2024/03/29 04:21:59;;;;;;;;;;;;;;;10.23;66.61;99955.56;5034239;28;20590;-90
2024/03/29 04:24:24;;;;;;;;;;;;;;;10.20;67.55;99944.53;5035763;28;20409;-90
2024/03/29 04:26:49;;;;;;;;;;;;;;;10.19;67.26;99946.38;5030253;28;19928;-89
2024/03/29 04:29:15;;;;;;;;;;;;;;;10.17;67.74;99955.75;5028555;28;19924;-90
2024/03/29 04:31:40;;;;;;;;;;;;;;;10.16;67.59;99952.28;5026632;28;19949;-89
2024/03/29 04:34:05;;;;;;;;;;;;;;;10.16;67.22;99946.13;5031301;28;19980;-90
2024/03/29 04:36:31;;;;;;;;;;;;;;;10.13;68.35;99962.72;5032124;28;19979;-90
2024/03/29 04:38:56;;;;;;;;;;;;;;;10.10;68.23;99964.06;5030505;28;20020;-89
2024/03/29 04:41:21;;;;;;;;;;;;;;;10.10;67.77;99974.75;5028361;28;20491;-89
2024/03/29 04:43:46;;;;;;;;;;;;;;;10.08;67.71;99971.53;5031610;28;20375;-90
2024/03/29 04:46:12;;;;;;;;;;;;;;;10.06;68.42;99972.88;5032265;28;19931;-91
2024/03/29 04:48:38;;;;;;;;;;;;;;;10.05;68.24;99980.06;5029484;28;19918;-90
2024/03/29 04:51:04;;;;;;;;;;;;;;;10.02;68.80;99991.31;5029293;28;19925;-90
2024/03/29 04:53:29;;;;;;;;;;;;;;;10.03;68.36;99990.25;5029942;28;19924;-91
2024/03/29 04:55:55;;;;;;;;;;;;;;;9.97;68.98;99981.41;5029995;28;19917;-90
2024/03/29 04:58:21;;;;;;;;;;;;;;;9.97;68.79;99984.06;5031612;28;20774;-90
2024/03/29 05:00:46;;;;;;;;;;;;;;;9.93;69.08;99974.97;5032537;28;20014;-90
2024/03/29 05:03:11;;;;;;;;;;;;;;;9.92;68.92;99973.38;5031037;28;20843;-90
2024/03/29 05:05:37;;;;;;;;;;;;;;;9.93;70.11;99966.13;5031706;28;19925;-90
2024/03/29 05:08:02;;;;;;;;;;;;;;;9.93;69.60;99958.91;5028543;28;19921;-90
2024/03/29 05:10:27;;;;;;;;;;;;;;;9.96;69.75;99961.06;5032948;28;19967;-90
2024/03/29 05:12:54;;;;;;;;;;;;;;;9.98;69.73;99977.66;5025537;28;19921;-89
2024/03/29 05:15:19;;;;;;;;;;;;;;;10.03;69.44;99978.72;5032264;28;19948;-90
2024/03/29 05:17:44;;;;;;;;;;;;;;;10.04;69.98;99975.78;5030376;28;20350;-89
2024/03/29 05:20:10;;;;;;;;;;;;;;;10.09;69.50;99967.00;5029540;28;19917;-90
2024/03/29 05:22:35;;;;;;;;;;;;;;;10.11;69.45;99968.34;5027058;28;19925;-89
2024/03/29 05:25:00;;;;;;;;;;;;;;;10.13;69.92;99958.16;5028231;28;19917;-90
2024/03/29 05:27:26;;;;;;;;;;;;;;;10.19;70.28;99964.31;5030882;28;20019;-90
2024/03/29 05:29:51;;;;;;;;;;;;;;;10.26;69.59;99975.63;5029461;28;19940;-89
2024/03/29 05:32:17;;;;;;;;;;;;;;;10.30;70.42;99963.31;5030278;28;20377;-90
2024/03/29 05:34:42;;;;;;;;;;;;;;;10.39;69.74;99956.38;5029361;28;19924;-89
2024/03/29 05:37:07;;;;;;;;;;;;;;;10.43;69.34;99962.00;5023932;28;19925;-89
2024/03/29 05:39:33;;;;;;;;;;;;;;;10.46;69.15;99973.00;5031156;28;19983;-90
2024/03/29 05:41:58;;;;;;;;;;;;;;;10.44;69.27;99968.97;5032783;28;19921;-90
2024/03/29 05:44:23;;;;;;;;;;;;;;;10.44;69.41;99972.47;5029317;28;19992;-89
2024/03/29 05:46:49;;;;;;;;;;;;;;;10.47;68.89;99981.84;5031734;28;19952;-90
2024/03/29 05:49:14;;;;;;;;;;;;;;;10.46;69.32;99989.06;5026052;28;20067;-90
2024/03/29 05:51:39;;;;;;;;;;;;;;;10.47;69.42;99997.91;5027975;28;19956;-90
2024/03/29 05:54:04;;;;;;;;;;;;;;;10.47;69.42;100004.06;5027864;28;19920;-89
2024/03/29 05:56:29;;;;;;;;;;;;;;;10.51;69.31;100009.69;5025181;28;19917;-89
2024/03/29 05:58:55;;;;;;;;;;;;;;;10.51;69.28;100018.53;5032598;28;19917;-90
2024/03/29 06:01:20;;;;;;;;;;;;;;;10.52;69.32;100030.84;5030885;28;19917;-89
2024/03/29 06:03:45;;;;;;;;;;;;;;;10.51;69.33;100023.88;5030429;28;19917;-89
2024/03/29 06:06:17;;;;;;;;;;;;;;;10.54;69.39;100012.63;5031705;28;19921;-90
2024/03/29 06:08:42;;;;;;;;;;;;;;;10.56;69.43;100005.13;5029104;28;19924;-90
2024/03/29 06:11:07;;;;;;;;;;;;;;;10.57;68.97;100006.75;5028885;28;19924;-89
2024/03/29 06:19:00;;;;;;;;;;;;;;;10.62;69.01;100015.88;5031594;28;20408;-90
2024/03/29 06:21:26;;;;;;;;;;;;;;;10.64;68.94;100017.22;5028288;28;19925;-90
2024/03/29 06:23:51;;;;;;;;;;;;;;;10.68;68.47;100014.81;5023091;28;19917;-90
2024/03/29 06:26:16;;;;;;;;;;;;;;;10.69;68.70;100008.38;5029393;28;19921;-89
2024/03/29 06:28:41;;;;;;;;;;;;;;;10.70;68.37;100007.31;5032176;28;19943;-89
2024/03/29 06:31:07;;;;;;;;;;;;;;;10.73;68.17;100002.19;5026800;28;19920;-89
2024/03/29 06:33:32;;;;;;;;;;;;;;;10.75;68.30;100005.41;5032494;28;19932;-90
2024/03/29 06:35:57;;;;;;;;;;;;;;;10.78;67.78;100014.81;5032312;28;20428;-91
2024/03/29 06:38:22;;;;;;;;;;;;;;;10.80;68.20;100015.34;5042317;28;19921;-90
2024/03/29 06:40:48;;;;;;;;;;;;;;;10.83;68.11;100025.53;5027210;28;19921;-90
2024/03/29 06:43:13;;;;;;;;;;;;;;;10.89;68.54;100019.09;5025421;28;19920;-90
2024/03/29 06:45:44;;;;;;;;;;;;;;;10.92;68.71;100033.84;5031267;28;19925;-90
2024/03/29 06:48:10;;;;;;;;;;;;;;;10.94;68.91;100034.38;5029641;28;19944;-90
2024/03/29 06:50:35;;;;;;;;;;;;;;;10.98;68.51;100038.94;5032447;28;19913;-89
2024/03/29 06:53:00;;;;;;;;;;;;;;;11.03;68.11;100041.63;5030391;28;20381;-89
2024/03/29 06:55:25;;;;;;;;;;;;;;;11.06;68.35;100041.09;5027727;28;19917;-90
2024/03/29 06:57:51;;;;;;;;;;;;;;;11.12;68.85;100033.84;5032463;28;19928;-90
2024/03/29 07:00:16;;;;;;;;;;;;;;;11.16;68.62;100030.38;5026059;28;19953;-90
2024/03/29 07:02:42;;;;;;;;;;;;;;;11.19;68.36;100023.66;5029452;28;20372;-90
2024/03/29 07:05:07;;;;;;;;;;;;;;;11.22;67.69;100027.69;5030091;28;19914;-90
2024/03/29 07:07:33;;;;;;;;;;;;;;;11.27;67.66;100041.06;5025259;28;20016;-90
2024/03/29 07:09:58;;;;;;;;;;;;;;;11.32;67.65;100038.41;5030476;28;19924;-90
2024/03/29 07:12:23;;;;;;;;;;;;;;;11.39;67.67;100060.38;5030393;28;19917;-90
2024/03/29 07:14:48;;;;;;;;;;;;;;;11.43;67.67;100069.50;5025149;28;19928;-90
2024/03/29 07:17:13;;;;;;;;;;;;;;;11.46;66.65;100067.06;5029012;28;19917;-90
2024/03/29 07:19:39;;;;;;;;;;;;;;;11.49;66.22;100068.44;5030353;28;19913;-90
2024/03/29 07:22:04;;;;;;;;;;;;;;;11.48;66.04;100067.59;5030505;28;19921;-91
2024/03/29 07:24:30;;;;;;;;;;;;;;;11.54;65.72;100076.47;5021235;28;19927;-90
2024/03/29 07:26:55;;;;;;;;;;;;;;;11.56;65.61;100071.63;5026119;28;20016;-91
2024/03/29 07:29:20;;;;;;;;;;;;;;;11.58;65.28;100063.31;5027972;28;19917;-90
2024/03/29 07:31:45;;;;;;;;;;;;;;;11.63;65.23;100072.13;5022107;28;19925;-91
2024/03/29 07:34:10;;;;;;;;;;;;;;;11.67;65.07;100075.06;5030844;28;19943;-90
2024/03/29 07:36:36;;;;;;;;;;;;;;;11.70;64.79;100071.88;5030215;28;19917;-91
2024/03/29 07:39:01;;;;;;;;;;;;;;;11.76;64.49;100081.50;5034995;28;19967;-90
2024/03/29 07:41:26;;;;;;;;;;;;;;;11.79;64.39;100092.53;5028080;28;19932;-87
2024/03/29 07:43:59;;;;;;;;;;;;;;;11.87;64.65;100103.81;5035516;28;20420;-90
2024/03/29 07:46:24;;;;;;;;;;;;;;;11.93;64.84;100114.25;5033405;28;19950;-91
2024/03/29 07:48:50;;;;;;;;;;;;;;;12.02;64.48;100114.50;5030607;28;20197;-91
2024/03/29 07:51:15;;;;;;;;;;;;;;;12.05;63.54;100105.91;5031821;28;19913;-90
2024/03/29 07:53:40;;;;;;;;;;;;;;;12.06;63.69;100112.88;5030279;28;19925;-90
2024/03/29 07:56:05;;;;;;;;;;;;;;;12.14;63.58;100104.25;5027807;28;19917;-90
2024/03/29 07:58:31;;;;;;;;;;;;;;;12.21;63.41;100109.31;5034064;28;20361;-90
2024/03/29 08:00:56;;;;;;;;;;;;;;;12.29;62.92;100098.03;5031552;28;20018;-91
2024/03/29 08:03:22;;;;;;;;;;;;;;;12.29;62.11;100103.41;5029241;28;20013;-91
2024/03/29 08:06:05;;;;;;;;;;;;;;;12.39;62.24;100111.44;5023583;28;19921;-91
2024/03/29 08:08:31;;;;;;;;;;;;;;;12.47;61.80;100104.69;5024102;28;20535;-91
2024/03/29 08:10:56;;;;;;;;;;;;;;;12.58;62.29;100092.81;5030252;28;19927;-91
2024/03/29 08:13:23;;;;;;;;;;;;;;;12.67;61.59;100097.31;5033442;28;19950;-90
2024/03/29 08:15:48;;;;;;;;;;;;;;;12.77;61.41;100096.47;5029881;28;19946;-90
2024/03/29 08:18:13;;;;;;;;;;;;;;;12.82;60.99;100091.03;5029328;28;20572;-91
2024/03/29 08:20:38;;;;;;;;;;;;;;;12.92;60.62;100088.28;5032233;28;20319;-91
2024/03/29 08:23:03;;;;;;;;;;;;;;;12.98;60.53;100089.06;5031451;28;20819;-90
2024/03/29 08:25:29;;;;;;;;;;;;;;;13.07;60.71;100100.00;5027783;28;19917;-89
2024/03/29 08:28:01;;;;;;;;;;;;;;;13.16;59.97;100111.78;5028286;28;19924;-90
2024/03/29 08:30:31;;;;;;;;;;;;;;;13.24;59.63;100122.78;5033807;28;19940;-89
2024/03/29 08:32:57;;;;;;;;;;;;;;;13.31;59.30;100144.00;5034198;28;19968;-89
2024/03/29 08:35:22;;;;;;;;;;;;;;;13.38;58.97;100124.84;5030652;28;19953;-91
2024/03/29 08:37:47;;;;;;;;;;;;;;;13.46;59.31;100116.13;5034091;28;19917;-90
2024/03/29 08:40:12;;;;;;;;;;;;;;;13.52;58.99;100110.44;5029365;28;19956;-90
2024/03/29 08:42:39;;;;;;;;;;;;;;;13.66;58.60;100117.88;5031249;28;20016;-91
2024/03/29 08:45:07;;;;;;;;;;;;;;;13.74;57.94;100119.94;5030338;28;20447;-90
2024/03/29 08:47:33;;;;;;;;;;;;;;;13.89;57.97;100125.19;5026903;28;20714;-90
2024/03/29 08:49:58;;;;;;;;;;;;;;;14.05;57.29;100132.00;5032445;28;20389;-91
2024/03/29 08:52:23;;;;;;;;;;;;;;;14.27;57.24;100125.31;5030441;28;20449;-92
2024/03/29 08:54:48;;;;;;;;;;;;;;;14.42;56.66;100125.13;5027378;28;19929;-90
2024/03/29 08:57:13;;;;;;;;;;;;;;;14.52;55.92;100114.22;5028574;28;19925;-91
2024/03/29 08:59:38;;;;;;;;;;;;;;;14.61;55.72;100112.50;5030217;28;19913;-91
2024/03/29 09:02:05;;;;;;;;;;;;;;;14.75;56.08;100112.59;5027225;28;20500;-90
2024/03/29 09:04:31;;;;;;;;;;;;;;;14.89;54.93;100131.53;5031677;28;19928;-91
2024/03/29 09:06:56;;;;;;;;;;;;;;;14.91;53.92;100127.47;5024252;28;19921;-90
2024/03/29 09:09:21;;;;;;;;;;;;;;;14.98;54.28;100132.50;5029076;28;19991;-91
2024/03/29 09:11:47;;;;;;;;;;;;;;;15.08;54.15;100125.06;5030131;28;19947;-90
2024/03/29 09:14:12;;;;;;;;;;;;;;;15.29;54.72;100127.44;5033289;28;19923;-91
2024/03/29 09:16:39;;;;;;;;;;;;;;;15.45;53.54;100141.50;5025555;28;19964;-91
2024/03/29 09:19:05;;;;;;;;;;;;;;;15.58;53.13;100135.31;5027618;28;19972;-91
2024/03/29 09:21:30;;;;;;;;;;;;;;;15.68;52.39;100146.00;5029135;28;19925;-91
2024/03/29 09:23:56;;;;;;;;;;;;;;;15.74;51.10;100152.09;5026239;28;19917;-90
2024/03/29 09:26:21;;;;;;;;;;;;;;;15.81;51.88;100150.63;5028603;28;19931;-90
2024/03/29 09:28:46;;;;;;;;;;;;;;;15.88;50.85;100159.16;5029443;28;20004;-89
2024/03/29 09:31:11;;;;;;;;;;;;;;;15.93;50.40;100152.84;5022667;28;19913;-90
2024/03/29 09:33:37;;;;;;;;;;;;;;;15.95;50.44;100178.47;5031440;28;19921;-91
2024/03/29 09:36:02;;;;;;;;;;;;;;;15.92;49.07;100162.03;5032402;28;19925;-90
2024/03/29 09:38:28;;;;;;;;;;;;;;;15.79;49.08;100179.81;5032884;28;20004;-91
2024/03/29 09:41:11;;;;;;;;;;;;;;;15.78;48.83;100167.41;5030101;28;19913;-91
2024/03/29 09:43:39;;;;;;;;;;;;;;;15.74;48.54;100171.81;5028765;28;20078;-91
2024/03/29 09:46:04;;;;;;;;;;;;;;;15.77;48.98;100171.22;5021647;28;19967;-90
2024/03/29 09:48:36;;;;;;;;;;;;;;;15.76;49.09;100168.81;5027802;28;20219;-90
2024/03/29 09:51:02;;;;;;;;;;;;;;;15.76;48.56;100185.81;5026465;28;19917;-91
2024/03/29 09:53:27;;;;;;;;;;;;;;;15.77;48.84;100179.31;5030677;28;19925;-90
2024/03/29 09:55:53;;;;;;;;;;;;;;;15.74;48.89;100171.81;5028563;28;20263;-90
2024/03/29 09:58:18;;;;;;;;;;;;;;;15.74;49.00;100144.81;5029308;28;20312;-91
2024/03/29 10:00:43;;;;;;;;;;;;;;;15.78;48.54;100140.41;5029139;28;19921;-90
2024/03/29 10:03:09;;;;;;;;;;;;;;;15.78;48.58;100134.19;5031586;28;19925;-91
2024/03/29 10:05:35;;;;;;;;;;;;;;;15.79;48.83;100120.41;5029691;28;19919;-90
2024/03/29 10:08:06;;;;;;;;;;;;;;;15.81;48.80;100107.41;5033027;28;19917;-91
2024/03/29 10:10:32;;;;;;;;;;;;;;;15.88;48.79;100096.22;5030391;28;19921;-91
2024/03/29 10:12:57;;;;;;;;;;;;;;;15.94;49.09;100076.91;5028081;28;20397;-90
2024/03/29 10:15:26;;;;;;;;;;;;;;;16.11;49.70;100070.09;5032463;28;19960;-91
2024/03/29 10:17:52;;;;;;;;;;;;;;;16.27;49.58;100072.19;5031742;28;19923;-91
2024/03/29 10:20:18;;;;;;;;;;;;;;;16.42;49.76;100059.44;5026625;28;19963;-90
2024/03/29 10:22:44;;;;;;;;;;;;;;;16.59;50.03;100068.53;5022260;28;19953;-89
2024/03/29 10:25:10;;;;;;;;;;;;;;;16.75;49.68;100071.72;5028571;28;20300;-91
2024/03/29 10:27:35;;;;;;;;;;;;;;;16.90;49.81;100062.47;5029182;28;19921;-91
2024/03/29 10:30:00;;;;;;;;;;;;;;;17.05;49.54;100070.19;5028536;28;19925;-91
2024/03/29 10:32:26;;;;;;;;;;;;;;;17.15;49.45;100072.66;5029634;28;20016;-91
2024/03/29 10:34:51;;;;;;;;;;;;;;;17.23;49.71;100071.13;5026359;28;20063;-91
2024/03/29 10:37:23;;;;;;;;;;;;;;;17.25;49.39;100068.13;5025778;28;20046;-91
2024/03/29 10:39:50;;;;;;;;;;;;;;;17.25;49.30;100054.59;5029375;28;20027;-92
2024/03/29 10:42:15;;;;;;;;;;;;;;;17.29;49.96;100052.84;5030733;28;19933;-91
2024/03/29 10:44:41;;;;;;;;;;;;;;;17.29;48.97;100059.06;5031908;28;19917;-91
2024/03/29 10:47:07;;;;;;;;;;;;;;;17.28;48.96;100045.84;5030331;28;19929;-91
2024/03/29 10:49:34;;;;;;;;;;;;;;;17.35;49.09;100057.03;5023101;28;21208;-89
2024/03/29 10:52:00;;;;;;;;;;;;;;;17.31;48.30;100050.63;5029072;28;19925;-92
2024/03/29 10:54:25;;;;;;;;;;;;;;;17.33;48.83;100051.13;5030475;28;20330;-91
2024/03/29 10:56:58;;;;;;;;;;;;;;;17.35;48.53;100052.41;5027207;28;19924;-90
2024/03/29 10:59:35;;;;;;;;;;;;;;;17.37;48.87;100050.19;5030996;28;20492;-90
2024/03/29 11:02:06;;;;;;;;;;;;;;;17.46;48.90;100050.25;5028122;28;19948;-91
2024/03/29 11:04:34;;;;;;;;;;;;;;;17.58;48.41;100055.88;5030496;28;19999;-90
2024/03/29 11:07:01;;;;;;;;;;;;;;;17.61;47.78;100054.47;5030687;28;19925;-91
2024/03/29 11:09:29;;;;;;;;;;;;;;;17.68;47.26;100049.44;5025678;28;19972;-91
2024/03/29 11:11:54;;;;;;;;;;;;;;;17.69;46.72;100041.00;5042032;28;19928;-90
2024/03/29 11:14:29;;;;;;;;;;;;;;;17.74;45.36;100064.44;5028205;28;19917;-89
2024/03/29 11:16:58;;;;;;;;;;;;;;;17.77;44.74;100044.84;5025154;28;19924;-90
2024/03/29 11:19:23;;;;;;;;;;;;;;;17.79;44.01;100056.97;5029741;28;19921;-90
2024/03/29 11:21:49;;;;;;;;;;;;;;;17.87;44.27;100016.66;5024433;28;19925;-90
2024/03/29 11:24:16;;;;;;;;;;;;;;;17.97;44.25;100028.03;5028465;28;19920;-89
2024/03/29 11:26:42;;;;;;;;;;;;;;;18.17;44.39;100033.97;5024484;28;19932;-90
2024/03/29 11:29:17;;;;;;;;;;;;;;;18.33;44.36;100027.78;5030118;28;19917;-90
2024/03/29 11:31:44;;;;;;;;;;;;;;;18.36;43.45;100029.88;5026766;28;19944;-89
2024/03/29 11:34:09;;;;;;;;;;;;;;;18.33;42.83;100038.63;5028292;28;19929;-91
2024/03/29 11:36:35;;;;;;;;;;;;;;;18.32;42.75;100023.47;5026804;28;19918;-90
2024/03/29 11:39:00;;;;;;;;;;;;;;;18.22;42.56;100031.91;5025818;28;20275;-90
2024/03/29 11:41:27;;;;;;;;;;;;;;;18.09;41.75;100030.13;5026541;28;20539;-91
2024/03/29 11:43:52;;;;;;;;;;;;;;;17.94;42.14;100014.28;5024921;28;20423;-90
2024/03/29 11:46:18;;;;;;;;;;;;;;;17.88;42.36;100010.94;5030239;28;19917;-90
2024/03/29 11:48:48;;;;;;;;;;;;;;;17.82;42.49;100009.47;5030665;28;20018;-90
2024/03/29 11:51:14;;;;;;;;;;;;;;;17.88;42.39;100015.56;5030267;28;20338;-91
2024/03/29 11:53:40;;;;;;;;;;;;;;;17.93;42.15;100012.69;5029889;28;19925;-91
2024/03/29 11:56:05;;;;;;;;;;;;;;;18.01;42.36;100020.84;5030535;28;19939;-91
2024/03/29 11:58:31;;;;;;;;;;;;;;;18.19;42.10;99997.28;5029160;28;19933;-90
2024/03/29 12:00:57;;;;;;;;;;;;;;;18.26;41.93;100013.88;5030345;28;20366;-90
2024/03/29 12:03:23;;;;;;;;;;;;;;;18.38;42.13;100003.22;5028706;28;19959;-90
2024/03/29 12:05:50;;;;;;;;;;;;;;;18.53;42.07;99993.03;5031495;28;19935;-91
2024/03/29 12:08:15;;;;;;;;;;;;;;;18.66;42.03;99986.66;5025156;28;19917;-90
2024/03/29 12:10:41;;;;;;;;;;;;;;;18.77;42.14;99982.50;5021324;28;20366;-90
2024/03/29 12:13:06;;;;;;;;;;;;;;;18.88;42.26;99986.47;5026180;28;19921;-91
2024/03/29 12:15:32;;;;;;;;;;;;;;;18.90;41.89;100008.66;5027992;28;19975;-90
2024/03/29 12:17:57;;;;;;;;;;;;;;;18.88;42.15;99994.63;5029207;28;19921;-91
2024/03/29 12:20:23;;;;;;;;;;;;;;;18.87;42.06;99984.91;5022068;28;19917;-91
2024/03/29 12:22:48;;;;;;;;;;;;;;;18.76;42.30;99969.25;5025998;28;19921;-91
2024/03/29 12:25:13;;;;;;;;;;;;;;;18.68;42.57;99974.38;5028453;28;20415;-92
2024/03/29 12:27:39;;;;;;;;;;;;;;;18.61;42.77;99967.78;5031785;28;20453;-92
2024/03/29 12:30:05;;;;;;;;;;;;;;;18.56;42.75;99978.81;5034636;28;20400;-91
2024/03/29 12:32:33;;;;;;;;;;;;;;;18.55;43.27;99983.44;5033277;28;20103;-91
2024/03/29 12:35:07;;;;;;;;;;;;;;;18.56;42.71;99986.94;5033006;28;19917;-91
2024/03/29 12:37:32;;;;;;;;;;;;;;;18.55;43.00;99980.72;5031399;28;19925;-92
2024/03/29 12:39:59;;;;;;;;;;;;;;;18.57;43.08;99994.78;5031769;28;19917;-92
2024/03/29 12:42:24;;;;;;;;;;;;;;;18.54;42.63;99984.56;5032479;28;19921;-92
2024/03/29 12:44:49;;;;;;;;;;;;;;;18.51;42.05;100000.69;5026076;28;19921;-91